createdAt,value
2023-03-27T00:00:26.816Z,100.00
2023-03-27T00:01:11.662Z,100.00
2023-03-27T00:01:53.478Z,100.00
2023-03-27T00:02:35.212Z,100.00
2023-03-27T00:03:17.478Z,100.00
2023-03-27T00:04:00.371Z,100.00
2023-03-27T00:04:42.378Z,100.00
2023-03-27T00:05:24.221Z,100.00
2023-03-27T00:06:09.330Z,100.00
2023-03-27T00:06:50.897Z,100.00
2023-03-27T00:07:35.955Z,100.00
2023-03-27T00:08:17.775Z,100.00
2023-03-27T00:08:59.382Z,100.00
2023-03-27T00:09:44.188Z,100.00
2023-03-27T00:10:26.480Z,100.00
2023-03-27T00:11:08.396Z,100.00
2023-03-27T00:11:50.239Z,100.00
2023-03-27T00:12:31.813Z,100.00
2023-03-27T00:13:13.535Z,100.00
2023-03-27T00:13:55.127Z,100.00
2023-03-27T00:14:36.742Z,100.00
2023-03-27T00:15:18.501Z,100.00
2023-03-27T00:16:00.207Z,100.00
2023-03-27T00:16:42.060Z,100.00
2023-03-27T00:17:24.170Z,100.00
2023-03-27T00:18:05.787Z,100.00
2023-03-27T00:18:47.460Z,100.00
2023-03-27T00:19:29.071Z,100.00
2023-03-27T00:20:11.077Z,100.00
2023-03-27T00:20:53.104Z,100.00
2023-03-27T00:21:35.345Z,100.00
2023-03-27T00:22:17.030Z,100.00
2023-03-27T00:22:58.616Z,100.00
2023-03-27T00:23:40.615Z,100.00
2023-03-27T00:24:22.302Z,100.00
2023-03-27T00:25:05.085Z,100.00
2023-03-27T00:25:50.747Z,100.00
2023-03-27T00:26:32.420Z,100.00
2023-03-27T00:27:14.461Z,100.00
2023-03-27T00:27:58.423Z,100.00
2023-03-27T00:28:40.083Z,100.00
2023-03-27T00:29:21.745Z,100.00
2023-03-27T00:30:05.016Z,100.00
2023-03-27T00:30:48.434Z,100.00
2023-03-27T00:31:30.285Z,100.00
2023-03-27T00:32:11.928Z,100.00
2023-03-27T00:32:55.398Z,100.00
2023-03-27T00:33:37.530Z,100.00
2023-03-27T00:34:19.386Z,100.00
2023-03-27T00:35:01.733Z,100.00
2023-03-27T00:35:47.779Z,100.00
2023-03-27T00:36:29.410Z,100.00
2023-03-27T00:37:11.678Z,100.00
2023-03-27T00:37:53.784Z,100.00
2023-03-27T00:38:36.652Z,100.00
2023-03-27T00:39:19.188Z,100.00
2023-03-27T00:40:01.848Z,100.00
2023-03-27T00:40:44.196Z,100.00
2023-03-27T00:41:25.976Z,100.00
2023-03-27T00:42:13.232Z,100.00
2023-03-27T00:42:57.728Z,100.00
2023-03-27T00:43:44.703Z,100.00
2023-03-27T00:44:34.214Z,100.00
2023-03-27T00:45:21.686Z,100.00
2023-03-27T00:46:15.411Z,100.00
2023-03-27T00:46:57.614Z,100.00
2023-03-27T00:47:39.610Z,100.00
2023-03-27T00:48:22.295Z,100.00
2023-03-27T00:49:09.704Z,100.00
2023-03-27T00:49:52.530Z,100.00
2023-03-27T00:50:41.466Z,100.00
2023-03-27T00:51:26.520Z,100.00
2023-03-27T00:52:08.537Z,100.00
2023-03-27T00:52:56.277Z,100.00
2023-03-27T00:53:38.503Z,100.00
2023-03-27T00:54:26.671Z,100.00
2023-03-27T00:55:14.546Z,100.00
2023-03-27T00:56:01.157Z,100.00
2023-03-27T00:56:45.570Z,100.00
2023-03-27T00:57:27.730Z,100.00
2023-03-27T00:58:19.182Z,100.00
2023-03-27T00:59:09.114Z,100.00
2023-03-27T00:59:54.110Z,100.00
2023-03-27T01:00:36.011Z,100.00
2023-03-27T01:01:20.028Z,100.00
2023-03-27T01:02:04.119Z,100.00
2023-03-27T01:02:49.781Z,100.00
2023-03-27T01:03:32.864Z,100.00
2023-03-27T01:04:14.613Z,100.00
2023-03-27T01:04:57.233Z,100.00
2023-03-27T01:05:38.897Z,100.00
2023-03-27T01:06:21.731Z,100.00
2023-03-27T01:07:05.489Z,100.00
2023-03-27T01:08:00.553Z,100.00
2023-03-27T01:08:45.351Z,100.00
2023-03-27T01:09:27.848Z,100.00
2023-03-27T01:10:11.027Z,100.00
2023-03-27T01:11:01.685Z,100.00
2023-03-27T01:11:55.669Z,100.00
2023-03-27T01:13:09.230Z,100.00
2023-03-27T01:14:01.665Z,100.00
2023-03-27T01:15:04.541Z,100.00
2023-03-27T01:16:07.061Z,100.00
2023-03-27T01:17:11.642Z,100.00
2023-03-27T01:17:59.304Z,100.00
2023-03-27T01:19:21.720Z,100.00
2023-03-27T01:20:33.339Z,100.00
2023-03-27T01:21:32.941Z,100.00
2023-03-27T01:22:33.624Z,100.00
2023-03-27T01:23:59.488Z,100.00
2023-03-27T01:25:25.853Z,100.00
2023-03-27T01:26:36.055Z,100.00
2023-03-27T01:27:42.673Z,100.00
2023-03-27T01:28:59.421Z,100.00
2023-03-27T01:29:58.101Z,100.00
2023-03-27T01:30:50.572Z,100.00
2023-03-27T01:32:00.124Z,100.00
2023-03-27T01:33:32.388Z,100.00
2023-03-27T01:34:28.593Z,100.00
2023-03-27T01:35:28.543Z,100.00
2023-03-27T01:36:39.712Z,100.00
2023-03-27T01:37:57.859Z,100.00
2023-03-27T01:39:05.245Z,100.00
2023-03-27T01:40:18.771Z,100.00
2023-03-27T01:41:08.981Z,100.00
2023-03-27T01:41:53.336Z,100.00
2023-03-27T01:42:49.323Z,100.00
2023-03-27T01:43:40.085Z,100.00
2023-03-27T01:44:47.705Z,100.00
2023-03-27T01:45:39.960Z,100.00
2023-03-27T01:46:24.234Z,100.00
2023-03-27T01:47:26.117Z,100.00
2023-03-27T01:48:16.858Z,100.00
2023-03-27T01:49:10.373Z,100.00
2023-03-27T01:50:00.540Z,100.00
2023-03-27T01:50:49.957Z,100.00
2023-03-27T01:51:38.401Z,100.00
2023-03-27T01:52:26.076Z,100.00
2023-03-27T01:53:15.345Z,100.00
2023-03-27T01:54:09.516Z,100.00
2023-03-27T01:54:58.333Z,100.00
2023-03-27T01:55:45.785Z,100.00
2023-03-27T01:56:37.246Z,100.00
2023-03-27T01:57:34.282Z,100.00
2023-03-27T01:58:37.664Z,100.00
2023-03-27T01:59:23.850Z,100.00
2023-03-27T02:00:19.427Z,100.00
2023-03-27T02:01:02.890Z,100.00
2023-03-27T02:01:53.387Z,100.00
2023-03-27T02:02:36.212Z,100.00
2023-03-27T02:03:22.773Z,100.00
2023-03-27T02:04:15.456Z,100.00
2023-03-27T02:05:07.518Z,100.00
2023-03-27T02:06:00.896Z,100.00
2023-03-27T02:06:51.865Z,100.00
2023-03-27T02:07:39.141Z,100.00
2023-03-27T02:08:50.812Z,100.00
2023-03-27T02:09:39.368Z,100.00
2023-03-27T02:10:26.455Z,100.00
2023-03-27T02:11:08.320Z,100.00
2023-03-27T02:12:12.460Z,100.00
2023-03-27T02:13:00.164Z,100.00
2023-03-27T02:13:59.319Z,100.00
2023-03-27T02:14:57.606Z,100.00
2023-03-27T02:16:01.595Z,100.00
2023-03-27T02:16:48.673Z,100.00
2023-03-27T02:17:34.225Z,100.00
2023-03-27T02:18:24.369Z,100.00
2023-03-27T02:19:13.685Z,100.00
2023-03-27T02:20:00.718Z,100.00
2023-03-27T02:20:42.461Z,100.00
2023-03-27T02:21:24.682Z,100.00
2023-03-27T02:22:07.614Z,100.00
2023-03-27T02:23:02.269Z,100.00
2023-03-27T02:23:44.755Z,100.00
2023-03-27T02:24:27.847Z,100.00
2023-03-27T02:25:28.296Z,100.00
2023-03-27T02:26:12.537Z,100.00
2023-03-27T02:27:04.288Z,100.00
2023-03-27T02:27:50.229Z,100.00
2023-03-27T02:28:41.409Z,100.00
2023-03-27T02:29:39.265Z,100.00
2023-03-27T02:30:34.815Z,100.00
2023-03-27T02:31:33.783Z,100.00
2023-03-27T02:32:42.267Z,100.00
2023-03-27T02:33:33.655Z,100.00
2023-03-27T02:34:54.121Z,100.00
2023-03-27T02:36:00.457Z,100.00
2023-03-27T02:37:25.150Z,100.00
2023-03-27T02:38:46.553Z,100.00
2023-03-27T02:39:34.977Z,100.00
2023-03-27T02:40:41.429Z,100.00
2023-03-27T02:42:17.413Z,100.00
2023-03-27T02:43:32.896Z,100.00
2023-03-27T02:44:20.982Z,100.00
2023-03-27T02:45:21.771Z,100.00
2023-03-27T02:46:17.680Z,100.00
2023-03-27T02:47:07.392Z,100.00
2023-03-27T02:48:09.919Z,100.00
2023-03-27T02:48:57.013Z,100.00
2023-03-27T02:49:46.645Z,100.00
2023-03-27T02:50:34.200Z,100.00
2023-03-27T02:51:43.215Z,100.00
2023-03-27T02:52:39.100Z,100.00
2023-03-27T02:53:24.407Z,100.00
2023-03-27T02:54:11.822Z,100.00
2023-03-27T02:55:06.327Z,100.00
2023-03-27T02:55:54.266Z,100.00
2023-03-27T02:56:44.652Z,100.00
2023-03-27T02:57:38.930Z,100.00
2023-03-27T02:58:47.307Z,100.00
2023-03-27T02:59:54.784Z,100.00
2023-03-27T03:00:41.909Z,100.00
2023-03-27T03:01:38.985Z,100.00
2023-03-27T03:02:39.911Z,100.00
2023-03-27T03:03:37.442Z,100.00
2023-03-27T03:04:33.059Z,100.00
2023-03-27T03:05:23.718Z,100.00
2023-03-27T03:06:06.925Z,100.00
2023-03-27T03:06:50.387Z,100.00
2023-03-27T03:07:34.588Z,100.00
2023-03-27T03:08:16.213Z,100.00
2023-03-27T03:09:04.618Z,100.00
2023-03-27T03:09:46.267Z,100.00
2023-03-27T03:10:28.058Z,100.00
2023-03-27T03:11:12.291Z,100.00
2023-03-27T03:11:54.540Z,100.00
2023-03-27T03:12:36.672Z,100.00
2023-03-27T03:13:18.489Z,100.00
2023-03-27T03:14:01.085Z,100.00
2023-03-27T03:14:46.586Z,100.00
2023-03-27T03:15:29.101Z,100.00
2023-03-27T03:16:11.067Z,100.00
2023-03-27T03:16:52.943Z,100.00
2023-03-27T03:17:37.006Z,100.00
2023-03-27T03:18:18.948Z,100.00
2023-03-27T03:19:01.183Z,100.00
2023-03-27T03:19:42.944Z,100.00
2023-03-27T03:20:24.576Z,100.00
2023-03-27T03:21:06.196Z,100.00
2023-03-27T03:21:49.476Z,100.00
2023-03-27T03:22:31.943Z,100.00
2023-03-27T03:23:13.887Z,100.00
2023-03-27T03:23:57.858Z,100.00
2023-03-27T03:24:42.365Z,100.00
2023-03-27T03:25:25.785Z,100.00
2023-03-27T03:26:08.093Z,100.00
2023-03-27T03:26:59.972Z,100.00
2023-03-27T03:27:41.551Z,100.00
2023-03-27T03:28:27.274Z,100.00
2023-03-27T03:29:10.437Z,100.00
2023-03-27T03:29:56.842Z,100.00
2023-03-27T03:30:42.952Z,100.00
2023-03-27T03:31:27.256Z,100.00
2023-03-27T03:32:10.756Z,100.00
2023-03-27T03:32:54.932Z,100.00
2023-03-27T03:33:37.449Z,100.00
2023-03-27T03:34:19.181Z,100.00
2023-03-27T03:35:01.602Z,100.00
2023-03-27T03:35:50.300Z,100.00
2023-03-27T03:36:50.476Z,100.00
2023-03-27T03:37:38.804Z,100.00
2023-03-27T03:38:26.448Z,100.00
2023-03-27T03:39:09.568Z,100.00
2023-03-27T03:39:52.064Z,100.00
2023-03-27T03:40:33.953Z,100.00
2023-03-27T03:41:15.658Z,100.00
2023-03-27T03:41:57.235Z,100.00
2023-03-27T03:42:48.355Z,100.00
2023-03-27T03:43:31.849Z,100.00
2023-03-27T03:44:14.135Z,100.00
2023-03-27T03:44:55.777Z,100.00
2023-03-27T03:45:37.839Z,100.00
2023-03-27T03:46:19.538Z,100.00
2023-03-27T03:47:01.193Z,100.00
2023-03-27T03:47:44.308Z,100.00
2023-03-27T03:48:26.588Z,100.00
2023-03-27T03:49:08.460Z,100.00
2023-03-27T03:49:50.324Z,100.00
2023-03-27T03:50:32.990Z,100.00
2023-03-27T03:51:14.602Z,100.00
2023-03-27T03:52:03.895Z,100.00
2023-03-27T03:52:47.106Z,100.00
2023-03-27T03:53:28.799Z,100.00
2023-03-27T03:54:11.013Z,100.00
2023-03-27T03:54:56.427Z,100.00
2023-03-27T03:55:38.421Z,100.00
2023-03-27T03:56:20.251Z,100.00
2023-03-27T03:57:04.945Z,100.00
2023-03-27T03:57:48.360Z,100.00
2023-03-27T03:58:38.049Z,100.00
2023-03-27T03:59:21.309Z,100.00
2023-03-27T04:00:38.045Z,100.00
2023-03-27T04:01:22.952Z,100.00
2023-03-27T04:02:12.131Z,100.00
2023-03-27T04:02:54.795Z,100.00
2023-03-27T04:03:37.780Z,100.00
2023-03-27T04:04:19.617Z,100.00
2023-03-27T04:05:13.432Z,100.00
2023-03-27T04:05:55.544Z,100.00
2023-03-27T04:06:37.784Z,100.00
2023-03-27T04:07:21.738Z,100.00
2023-03-27T04:08:08.404Z,100.00
2023-03-27T04:08:50.165Z,100.00
2023-03-27T04:09:54.896Z,100.00
2023-03-27T04:10:41.562Z,100.00
2023-03-27T04:11:46.955Z,100.00
2023-03-27T04:12:33.752Z,100.00
2023-03-27T04:13:16.844Z,100.00
2023-03-27T04:14:11.369Z,100.00
2023-03-27T04:14:57.104Z,100.00
2023-03-27T04:16:14.489Z,100.00
2023-03-27T04:17:01.781Z,100.00
2023-03-27T04:17:44.381Z,100.00
2023-03-27T04:18:32.622Z,100.00
2023-03-27T04:19:18.104Z,100.00
2023-03-27T04:20:02.230Z,100.00
2023-03-27T04:20:49.795Z,100.00
2023-03-27T04:21:33.117Z,100.00
2023-03-27T04:22:17.261Z,100.00
2023-03-27T04:23:02.143Z,100.00
2023-03-27T04:23:45.994Z,100.00
2023-03-27T04:24:32.775Z,100.00
2023-03-27T04:25:17.305Z,100.00
2023-03-27T04:26:01.974Z,100.00
2023-03-27T04:27:01.939Z,100.00
2023-03-27T04:27:53.733Z,100.00
2023-03-27T04:28:39.879Z,100.00
2023-03-27T04:29:43.415Z,100.00
2023-03-27T04:30:44.702Z,100.00
2023-03-27T04:31:46.535Z,100.00
2023-03-27T04:32:52.850Z,100.00
2023-03-27T04:33:53.126Z,100.00
2023-03-27T04:35:00.845Z,100.00
2023-03-27T04:36:05.306Z,100.00
2023-03-27T04:36:58.378Z,100.00
2023-03-27T04:37:41.590Z,100.00
2023-03-27T04:38:41.649Z,100.00
2023-03-27T04:39:23.324Z,100.00
2023-03-27T04:40:06.803Z,100.00
2023-03-27T04:40:49.257Z,100.00
2023-03-27T04:41:32.530Z,100.00
2023-03-27T04:42:14.490Z,100.00
2023-03-27T04:42:56.464Z,100.00
2023-03-27T04:43:40.046Z,100.00
2023-03-27T04:44:21.814Z,100.00
2023-03-27T04:45:04.159Z,100.00
2023-03-27T04:45:48.668Z,100.00
2023-03-27T04:46:31.856Z,100.00
2023-03-27T04:47:20.568Z,100.00
2023-03-27T04:48:05.953Z,100.00
2023-03-27T04:48:48.031Z,100.00
2023-03-27T04:49:40.371Z,100.00
2023-03-27T04:50:32.352Z,100.00
2023-03-27T04:51:14.185Z,100.00
2023-03-27T04:51:57.258Z,100.00
2023-03-27T04:52:42.738Z,100.00
2023-03-27T04:53:30.008Z,100.00
2023-03-27T04:54:11.874Z,100.00
2023-03-27T04:54:58.791Z,100.00
2023-03-27T04:55:41.836Z,100.00
2023-03-27T04:56:24.919Z,100.00
2023-03-27T04:57:09.882Z,100.00
2023-03-27T04:57:51.579Z,100.00
2023-03-27T04:58:36.736Z,100.00
2023-03-27T04:59:23.390Z,100.00
2023-03-27T05:00:28.200Z,100.00
2023-03-27T05:01:30.248Z,100.00
2023-03-27T05:02:12.874Z,100.00
2023-03-27T05:03:03.458Z,100.00
2023-03-27T05:03:56.902Z,100.00
2023-03-27T05:05:14.548Z,100.00
2023-03-27T05:05:56.270Z,100.00
2023-03-27T05:06:39.931Z,100.00
2023-03-27T05:07:26.534Z,100.00
2023-03-27T05:08:08.222Z,100.00
2023-03-27T05:08:50.289Z,100.00
2023-03-27T05:09:40.074Z,100.00
2023-03-27T05:10:23.406Z,100.00
2023-03-27T05:11:07.696Z,100.00
2023-03-27T05:11:56.331Z,100.00
2023-03-27T05:12:46.101Z,100.00
2023-03-27T05:13:29.673Z,100.00
2023-03-27T05:14:11.497Z,100.00
2023-03-27T05:14:55.778Z,100.00
2023-03-27T05:15:53.171Z,100.00
2023-03-27T05:16:37.440Z,100.00
2023-03-27T05:17:21.175Z,100.00
2023-03-27T05:18:02.890Z,100.00
2023-03-27T05:18:46.295Z,100.00
2023-03-27T05:19:27.988Z,100.00
2023-03-27T05:20:17.092Z,100.00
2023-03-27T05:20:59.345Z,100.00
2023-03-27T05:21:41.066Z,100.00
2023-03-27T05:22:24.887Z,100.00
2023-03-27T05:23:15.044Z,100.00
2023-03-27T05:23:56.696Z,100.00
2023-03-27T05:24:39.867Z,100.00
2023-03-27T05:25:22.563Z,100.00
2023-03-27T05:26:05.033Z,100.00
2023-03-27T05:27:10.190Z,100.00
2023-03-27T05:27:56.159Z,100.00
2023-03-27T05:28:40.998Z,100.00
2023-03-27T05:29:22.636Z,100.00
2023-03-27T05:30:18.297Z,100.00
2023-03-27T05:31:01.428Z,100.00
2023-03-27T05:31:46.774Z,100.00
2023-03-27T05:33:00.795Z,100.00
2023-03-27T05:33:44.833Z,100.00
2023-03-27T05:34:27.023Z,100.00
2023-03-27T05:35:11.198Z,100.00
2023-03-27T05:35:57.478Z,100.00
2023-03-27T05:36:40.642Z,100.00
2023-03-27T05:37:22.644Z,100.00
2023-03-27T05:38:28.173Z,100.00
2023-03-27T05:39:27.068Z,100.00
2023-03-27T05:40:09.152Z,100.00
2023-03-27T05:40:52.277Z,100.00
2023-03-27T05:41:35.191Z,100.00
2023-03-27T05:42:18.369Z,100.00
2023-03-27T05:43:00.888Z,100.00
2023-03-27T05:43:45.253Z,100.00
2023-03-27T05:44:28.710Z,100.00
2023-03-27T05:45:11.717Z,100.00
2023-03-27T05:45:55.401Z,100.00
2023-03-27T05:46:37.235Z,100.00
2023-03-27T05:47:27.029Z,100.00
2023-03-27T05:48:09.494Z,100.00
2023-03-27T05:48:55.917Z,100.00
2023-03-27T05:49:39.128Z,100.00
2023-03-27T05:50:29.831Z,100.00
2023-03-27T05:51:13.590Z,100.00
2023-03-27T05:51:55.251Z,100.00
2023-03-27T05:52:37.525Z,100.00
2023-03-27T05:53:19.465Z,100.00
2023-03-27T05:54:19.594Z,100.00
2023-03-27T05:55:08.236Z,100.00
2023-03-27T05:56:03.179Z,100.00
2023-03-27T05:56:52.101Z,100.00
2023-03-27T05:57:37.613Z,100.00
2023-03-27T05:58:19.233Z,100.00
2023-03-27T05:59:02.231Z,100.00
2023-03-27T05:59:45.787Z,100.00
2023-03-27T06:00:38.341Z,100.00
2023-03-27T06:01:20.820Z,100.00
2023-03-27T06:02:02.562Z,100.00
2023-03-27T06:02:59.009Z,100.00
2023-03-27T06:03:56.107Z,100.00
2023-03-27T06:04:54.198Z,100.00
2023-03-27T06:05:50.796Z,100.00
2023-03-27T06:06:33.095Z,100.00
2023-03-27T06:07:14.877Z,100.00
2023-03-27T06:08:00.180Z,100.00
2023-03-27T06:08:42.144Z,100.00
2023-03-27T06:09:24.066Z,100.00
2023-03-27T06:10:30.141Z,100.00
2023-03-27T06:11:23.854Z,100.00
2023-03-27T06:12:05.945Z,100.00
2023-03-27T06:13:03.806Z,100.00
2023-03-27T06:13:51.596Z,100.00
2023-03-27T06:14:38.457Z,100.00
2023-03-27T06:15:39.018Z,100.00
2023-03-27T06:16:31.367Z,100.00
2023-03-27T06:17:26.546Z,100.00
2023-03-27T06:18:14.152Z,100.00
2023-03-27T06:18:56.183Z,100.00
2023-03-27T06:19:38.268Z,100.00
2023-03-27T06:20:21.337Z,100.00
2023-03-27T06:21:07.305Z,100.00
2023-03-27T06:21:48.934Z,100.00
2023-03-27T06:22:30.615Z,100.00
2023-03-27T06:23:12.965Z,100.00
2023-03-27T06:23:56.280Z,100.00
2023-03-27T06:24:37.917Z,100.00
2023-03-27T06:25:20.277Z,100.00
2023-03-27T06:26:02.037Z,100.00
2023-03-27T06:26:45.331Z,100.00
2023-03-27T06:27:28.292Z,100.00
2023-03-27T06:28:11.049Z,100.00
2023-03-27T06:28:58.946Z,100.00
2023-03-27T06:29:42.952Z,100.00
2023-03-27T06:30:25.903Z,100.00
2023-03-27T06:31:27.127Z,100.00
2023-03-27T06:32:32.272Z,100.00
2023-03-27T06:33:15.167Z,100.00
2023-03-27T06:33:58.175Z,100.00
2023-03-27T06:35:08.185Z,100.00
2023-03-27T06:36:19.491Z,100.00
2023-03-27T06:37:03.575Z,100.00
2023-03-27T06:37:51.821Z,100.00
2023-03-27T06:38:37.137Z,100.00
2023-03-27T06:39:19.715Z,100.00
2023-03-27T06:40:09.382Z,100.00
2023-03-27T06:40:52.676Z,100.00
2023-03-27T06:41:34.442Z,100.00
2023-03-27T06:42:27.297Z,100.00
2023-03-27T06:43:34.060Z,100.00
2023-03-27T06:44:24.092Z,100.00
2023-03-27T06:45:27.350Z,100.00
2023-03-27T06:46:42.732Z,100.00
2023-03-27T06:47:44.764Z,100.00
2023-03-27T06:48:51.324Z,100.00
2023-03-27T06:49:33.917Z,100.00
2023-03-27T06:50:26.045Z,100.00
2023-03-27T06:51:12.039Z,100.00
2023-03-27T06:51:53.789Z,100.00
2023-03-27T06:52:37.144Z,100.00
2023-03-27T06:53:36.684Z,100.00
2023-03-27T06:54:20.705Z,100.00
2023-03-27T06:55:07.352Z,100.00
2023-03-27T06:56:02.824Z,100.00
2023-03-27T06:57:00.789Z,100.00
2023-03-27T06:57:49.816Z,100.00
2023-03-27T06:58:33.648Z,100.00
2023-03-27T06:59:15.617Z,100.00
2023-03-27T07:00:00.267Z,100.00
2023-03-27T07:01:06.067Z,100.00
2023-03-27T07:02:11.094Z,100.00
2023-03-27T07:03:11.925Z,100.00
2023-03-27T07:04:16.718Z,100.00
2023-03-27T07:05:36.789Z,100.00
2023-03-27T07:06:19.368Z,100.00
2023-03-27T07:07:06.826Z,100.00
2023-03-27T07:07:54.064Z,100.00
2023-03-27T07:08:40.645Z,100.00
2023-03-27T07:09:22.740Z,100.00
2023-03-27T07:10:14.375Z,100.00
2023-03-27T07:11:10.872Z,100.00
2023-03-27T07:11:57.254Z,100.00
2023-03-27T07:12:38.995Z,100.00
2023-03-27T07:13:20.891Z,100.00
2023-03-27T07:14:02.611Z,100.00
2023-03-27T07:14:45.386Z,100.00
2023-03-27T07:15:27.206Z,100.00
2023-03-27T07:16:12.353Z,100.00
2023-03-27T07:16:54.169Z,100.00
2023-03-27T07:17:48.602Z,100.00
2023-03-27T07:18:32.808Z,100.00
2023-03-27T07:19:14.431Z,100.00
2023-03-27T07:19:59.921Z,100.00
2023-03-27T07:20:45.397Z,100.00
2023-03-27T07:21:31.016Z,100.00
2023-03-27T07:22:15.249Z,100.00
2023-03-27T07:23:01.635Z,100.00
2023-03-27T07:24:03.682Z,100.00
2023-03-27T07:24:47.602Z,100.00
2023-03-27T07:25:36.862Z,100.00
2023-03-27T07:26:20.399Z,100.00
2023-03-27T07:27:14.708Z,100.00
2023-03-27T07:28:00.400Z,100.00
2023-03-27T07:28:44.497Z,100.00
2023-03-27T07:29:27.333Z,100.00
2023-03-27T07:30:13.212Z,100.00
2023-03-27T07:30:56.488Z,100.00
2023-03-27T07:32:36.290Z,100.00
2023-03-27T07:33:19.282Z,100.00
2023-03-27T07:34:01.618Z,100.00
2023-03-27T07:35:06.591Z,100.00
2023-03-27T07:36:11.452Z,100.00
2023-03-27T07:37:01.859Z,100.00
2023-03-27T07:37:44.707Z,100.00
2023-03-27T07:38:46.703Z,100.00
2023-03-27T07:39:39.694Z,100.00
2023-03-27T07:40:26.604Z,100.00
2023-03-27T07:41:32.173Z,100.00
2023-03-27T07:42:14.021Z,100.00
2023-03-27T07:43:16.471Z,100.00
2023-03-27T07:43:59.207Z,100.00
2023-03-27T07:44:45.224Z,100.00
2023-03-27T07:45:26.958Z,100.00
2023-03-27T07:46:12.267Z,100.00
2023-03-27T07:46:54.946Z,100.00
2023-03-27T07:47:36.646Z,100.00
2023-03-27T07:48:18.855Z,100.00
2023-03-27T07:49:01.096Z,100.00
2023-03-27T07:49:43.114Z,100.00
2023-03-27T07:50:27.673Z,100.00
2023-03-27T07:51:13.854Z,100.00
2023-03-27T07:51:56.384Z,100.00
2023-03-27T07:52:40.559Z,100.00
2023-03-27T07:53:33.732Z,100.00
2023-03-27T07:54:24.513Z,100.00
2023-03-27T07:55:08.507Z,100.00
2023-03-27T07:55:58.943Z,100.00
2023-03-27T07:56:41.140Z,100.00
2023-03-27T07:57:59.856Z,100.00
2023-03-27T07:58:45.018Z,97.98
2023-03-27T07:59:32.361Z,100.00
2023-03-27T08:00:22.819Z,100.00
2023-03-27T08:01:16.290Z,100.00
2023-03-27T08:01:57.904Z,100.00
2023-03-27T08:02:43.297Z,95.87
2023-03-27T08:03:26.278Z,96.09
2023-03-27T08:04:10.101Z,90.66
2023-03-27T08:04:55.999Z,90.35
2023-03-27T08:05:38.359Z,87.10
2023-03-27T08:06:26.042Z,85.58
2023-03-27T08:07:08.446Z,84.25
2023-03-27T08:07:51.700Z,87.05
2023-03-27T08:08:51.548Z,89.51
2023-03-27T08:09:33.423Z,87.66
2023-03-27T08:10:16.067Z,87.03
2023-03-27T08:11:23.224Z,86.06
2023-03-27T08:12:12.114Z,88.91
2023-03-27T08:12:57.566Z,90.97
2023-03-27T08:13:39.778Z,89.85
2023-03-27T08:14:22.422Z,88.85
2023-03-27T08:15:06.574Z,90.54
2023-03-27T08:15:48.496Z,91.99
2023-03-27T08:16:37.026Z,90.09
2023-03-27T08:17:20.039Z,82.60
2023-03-27T08:18:04.362Z,83.56
2023-03-27T08:18:46.862Z,85.23
2023-03-27T08:19:29.086Z,83.44
2023-03-27T08:20:15.161Z,82.93
2023-03-27T08:21:03.709Z,81.71
2023-03-27T08:21:45.903Z,81.79
2023-03-27T08:22:28.227Z,80.72
2023-03-27T08:23:28.917Z,80.18
2023-03-27T08:24:19.361Z,79.35
2023-03-27T08:25:23.021Z,73.23
2023-03-27T08:26:05.529Z,75.88
2023-03-27T08:26:53.489Z,79.04
2023-03-27T08:27:35.132Z,78.09
2023-03-27T08:28:17.130Z,80.51
2023-03-27T08:28:59.456Z,76.83
2023-03-27T08:29:44.824Z,73.29
2023-03-27T08:30:26.607Z,71.10
2023-03-27T08:31:16.180Z,73.57
2023-03-27T08:31:59.351Z,74.77
2023-03-27T08:32:42.203Z,77.70
2023-03-27T08:33:27.590Z,77.44
2023-03-27T08:34:09.320Z,70.72
2023-03-27T08:34:58.988Z,70.17
2023-03-27T08:35:40.665Z,68.81
2023-03-27T08:36:23.062Z,71.06
2023-03-27T08:37:08.728Z,70.55
2023-03-27T08:38:26.308Z,69.89
2023-03-27T08:39:30.831Z,69.36
2023-03-27T08:40:21.104Z,69.67
2023-03-27T08:41:03.856Z,71.05
2023-03-27T08:41:55.861Z,74.04
2023-03-27T08:43:12.222Z,74.68
2023-03-27T08:43:56.709Z,72.86
2023-03-27T08:44:38.980Z,74.55
2023-03-27T08:45:36.908Z,76.56
2023-03-27T08:46:23.642Z,78.11
2023-03-27T08:47:26.808Z,79.17
2023-03-27T08:48:21.848Z,80.82
2023-03-27T08:49:15.048Z,79.52
2023-03-27T08:50:05.797Z,76.54
2023-03-27T08:51:03.710Z,76.62
2023-03-27T08:52:01.691Z,71.54
2023-03-27T08:52:46.824Z,67.76
2023-03-27T08:53:58.709Z,66.18
2023-03-27T08:54:48.285Z,63.30
2023-03-27T08:55:42.382Z,65.15
2023-03-27T08:56:32.915Z,65.49
2023-03-27T08:57:23.105Z,65.74
2023-03-27T08:58:19.009Z,63.54
2023-03-27T08:59:01.710Z,63.28
2023-03-27T08:59:43.533Z,64.52
2023-03-27T09:00:36.884Z,67.12
2023-03-27T09:02:12.487Z,69.23
2023-03-27T09:03:18.229Z,71.87
2023-03-27T09:04:09.955Z,68.75
2023-03-27T09:05:06.145Z,70.01
2023-03-27T09:05:59.007Z,68.99
2023-03-27T09:06:51.318Z,68.37
2023-03-27T09:07:45.928Z,70.37
2023-03-27T09:09:07.093Z,67.45
2023-03-27T09:09:59.867Z,64.89
2023-03-27T09:10:56.808Z,63.96
2023-03-27T09:12:22.910Z,64.66
2023-03-27T09:13:18.918Z,61.81
2023-03-27T09:14:04.828Z,61.82
2023-03-27T09:14:51.475Z,61.53
2023-03-27T09:15:40.776Z,60.67
2023-03-27T09:16:25.349Z,57.66
2023-03-27T09:17:17.033Z,58.92
2023-03-27T09:18:38.791Z,57.12
2023-03-27T09:19:38.179Z,56.98
2023-03-27T09:20:30.354Z,54.53
2023-03-27T09:21:21.197Z,55.76
2023-03-27T09:22:10.307Z,55.54
2023-03-27T09:23:42.022Z,56.53
2023-03-27T09:24:43.240Z,56.87
2023-03-27T09:25:50.057Z,55.44
2023-03-27T09:26:57.980Z,55.78
2023-03-27T09:28:19.329Z,55.85
2023-03-27T09:29:24.864Z,55.52
2023-03-27T09:30:23.641Z,55.50
2023-03-27T09:31:24.810Z,53.99
2023-03-27T09:32:14.467Z,53.12
2023-03-27T09:33:01.838Z,53.21
2023-03-27T09:33:44.712Z,53.79
2023-03-27T09:34:33.962Z,53.90
2023-03-27T09:35:18.990Z,53.75
2023-03-27T09:36:02.068Z,53.24
2023-03-27T09:36:44.551Z,53.67
2023-03-27T09:37:27.524Z,51.40
2023-03-27T09:38:19.913Z,50.94
2023-03-27T09:39:13.027Z,51.89
2023-03-27T09:39:58.804Z,51.71
2023-03-27T09:40:45.635Z,51.81
2023-03-27T09:41:48.882Z,50.59
2023-03-27T09:42:38.061Z,51.02
2023-03-27T09:43:27.483Z,51.89
2023-03-27T09:44:25.605Z,51.83
2023-03-27T09:45:12.688Z,53.20
2023-03-27T09:46:17.501Z,53.42
2023-03-27T09:47:11.862Z,53.85
2023-03-27T09:48:02.803Z,53.39
2023-03-27T09:49:12.616Z,53.21
2023-03-27T09:50:06.794Z,53.38
2023-03-27T09:51:05.814Z,53.84
2023-03-27T09:51:59.507Z,53.82
2023-03-27T09:53:22.937Z,54.11
2023-03-27T09:54:16.826Z,55.44
2023-03-27T09:54:59.129Z,56.45
2023-03-27T09:55:56.731Z,57.29
2023-03-27T09:56:51.614Z,56.58
2023-03-27T09:58:13.321Z,54.18
2023-03-27T09:59:02.064Z,53.24
2023-03-27T10:00:02.173Z,51.69
2023-03-27T10:00:52.569Z,50.36
2023-03-27T10:01:51.857Z,51.14
2023-03-27T10:02:50.940Z,50.26
2023-03-27T10:04:02.642Z,50.69
2023-03-27T10:05:04.259Z,50.39
2023-03-27T10:06:14.143Z,50.63
2023-03-27T10:07:23.945Z,50.41
2023-03-27T10:08:43.692Z,51.25
2023-03-27T10:09:56.168Z,52.19
2023-03-27T10:10:47.466Z,52.26
2023-03-27T10:11:58.109Z,51.00
2023-03-27T10:12:58.280Z,51.59
2023-03-27T10:13:52.094Z,51.94
2023-03-27T10:14:52.826Z,51.76
2023-03-27T10:15:44.031Z,52.05
2023-03-27T10:16:49.062Z,52.19
2023-03-27T10:17:44.045Z,52.16
2023-03-27T10:18:49.194Z,52.34
2023-03-27T10:19:46.459Z,52.38
2023-03-27T10:20:37.445Z,52.42
2023-03-27T10:21:54.219Z,52.83
2023-03-27T10:22:55.949Z,52.10
2023-03-27T10:23:49.539Z,51.81
2023-03-27T10:24:55.591Z,51.25
2023-03-27T10:25:58.092Z,52.05
2023-03-27T10:27:03.387Z,51.13
2023-03-27T10:27:51.233Z,51.03
2023-03-27T10:29:32.226Z,50.92
2023-03-27T10:30:48.108Z,51.56